ITY210 KMCO-KMIA
Flight info
| Callsign | ITY210 |
|---|---|
| Flight time | 0h 39m |
| Altitude | 21000 |
| Route | DDANY3 DDANY CSTAL3 |
| Aircraft | A320/M-SDE3FGHIRWY/LB1 |
Departure
| Time | 2026-04-26 17:30 |
|---|---|
| Airport | Orlando International Airport (KMCO) |
Arrival
| Time | 2026-04-26 18:10 |
|---|---|
| Airport | Miami International Airport (KMIA) |
| Time | Latitude | Longitude | Altitude | Speed | Heading |
|---|---|---|---|---|---|
| 2026-04-26 17:03 | 28.42792 | -81.31583 | 102 ft | 0 kts | 45° |
| 2026-04-26 17:16 | 28.42781 | -81.31595 | 102 ft | 2 kts | 45° |
| 2026-04-26 17:16 | 28.42768 | -81.31607 | 102 ft | 2 kts | 356° |
| 2026-04-26 17:16 | 28.42754 | -81.31600 | 100 ft | 2 kts | 286° |
| 2026-04-26 17:17 | 28.42752 | -81.31593 | 101 ft | 0 kts | 260° |
| 2026-04-26 17:18 | 28.42749 | -81.31600 | 100 ft | 4 kts | 249° |
| 2026-04-26 17:18 | 28.42709 | -81.31634 | 102 ft | 9 kts | 201° |
| 2026-04-26 17:18 | 28.42647 | -81.31634 | 102 ft | 9 kts | 173° |
| 2026-04-26 17:19 | 28.42525 | -81.31600 | 102 ft | 9 kts | 149° |
| 2026-04-26 17:19 | 28.42510 | -81.31541 | 102 ft | 8 kts | 83° |
| 2026-04-26 17:19 | 28.42520 | -81.31483 | 102 ft | 7 kts | 79° |
| 2026-04-26 17:20 | 28.42529 | -81.31413 | 102 ft | 12 kts | 95° |
| 2026-04-26 17:20 | 28.42515 | -81.31384 | 101 ft | 14 kts | 129° |
| 2026-04-26 17:20 | 28.42388 | -81.31280 | 100 ft | 8 kts | 173° |
| 2026-04-26 17:20 | 28.42349 | -81.31238 | 100 ft | 11 kts | 104° |
| 2026-04-26 17:21 | 28.42334 | -81.31129 | 100 ft | 15 kts | 101° |
| 2026-04-26 17:21 | 28.42318 | -81.31016 | 100 ft | 14 kts | 94° |
| 2026-04-26 17:21 | 28.42319 | -81.30907 | 100 ft | 13 kts | 85° |
| 2026-04-26 17:21 | 28.42327 | -81.30809 | 103 ft | 10 kts | 85° |
| 2026-04-26 17:22 | 28.42331 | -81.30760 | 106 ft | 5 kts | 85° |
| 2026-04-26 17:22 | 28.42335 | -81.30694 | 106 ft | 11 kts | 86° |
| 2026-04-26 17:22 | 28.42339 | -81.30613 | 106 ft | 10 kts | 84° |
| 2026-04-26 17:22 | 28.42345 | -81.30535 | 106 ft | 12 kts | 84° |
| 2026-04-26 17:23 | 28.42354 | -81.30411 | 101 ft | 18 kts | 85° |
| 2026-04-26 17:23 | 28.42360 | -81.30278 | 102 ft | 16 kts | 89° |
| 2026-04-26 17:23 | 28.42359 | -81.30163 | 103 ft | 13 kts | 91° |
| 2026-04-26 17:23 | 28.42359 | -81.30064 | 104 ft | 12 kts | 89° |
| 2026-04-26 17:24 | 28.42360 | -81.30040 | 104 ft | 11 kts | 88° |
| 2026-04-26 17:24 | 28.42361 | -81.30008 | 104 ft | 11 kts | 87° |
| 2026-04-26 17:24 | 28.42364 | -81.29896 | 103 ft | 11 kts | 90° |
| 2026-04-26 17:25 | 28.42395 | -81.29805 | 102 ft | 14 kts | 33° |
| 2026-04-26 17:25 | 28.42456 | -81.29794 | 103 ft | 13 kts | 1° |
| 2026-04-26 17:25 | 28.42542 | -81.29794 | 103 ft | 12 kts | 358° |
| 2026-04-26 17:25 | 28.42620 | -81.29796 | 103 ft | 11 kts | 359° |
| 2026-04-26 17:26 | 28.42701 | -81.29797 | 103 ft | 14 kts | 0° |
| 2026-04-26 17:26 | 28.42824 | -81.29799 | 103 ft | 19 kts | 359° |
| 2026-04-26 17:26 | 28.42949 | -81.29800 | 103 ft | 17 kts | 360° |
| 2026-04-26 17:26 | 28.43064 | -81.29799 | 103 ft | 16 kts | 359° |
| 2026-04-26 17:27 | 28.43167 | -81.29803 | 103 ft | 14 kts | 358° |
| 2026-04-26 17:27 | 28.43262 | -81.29803 | 103 ft | 13 kts | 360° |
| 2026-04-26 17:27 | 28.43374 | -81.29804 | 103 ft | 20 kts | 360° |
| 2026-04-26 17:27 | 28.43483 | -81.29805 | 104 ft | 14 kts | 0° |
| 2026-04-26 17:28 | 28.43549 | -81.29756 | 104 ft | 12 kts | 77° |
| 2026-04-26 17:28 | 28.43551 | -81.29711 | 103 ft | 1 kts | 90° |
| 2026-04-26 17:28 | 28.43551 | -81.29708 | 103 ft | 0 kts | 90° |
| 2026-04-26 17:29 | 28.43551 | -81.29691 | 103 ft | 10 kts | 89° |
| 2026-04-26 17:29 | 28.43492 | -81.29587 | 104 ft | 13 kts | 174° |
| 2026-04-26 17:29 | 28.43318 | -81.29585 | 108 ft | 55 kts | 180° |
| 2026-04-26 17:30 | 28.42685 | -81.29580 | 101 ft | 123 kts | 179° |
| 2026-04-26 17:30 | 28.41655 | -81.29567 | 239 ft | 161 kts | 183° |
| 2026-04-26 17:30 | 28.40535 | -81.29545 | 822 ft | 169 kts | 181° |
| 2026-04-26 17:30 | 28.39335 | -81.29501 | 1415 ft | 174 kts | 181° |
| 2026-04-26 17:31 | 28.38087 | -81.29202 | 1714 ft | 200 kts | 156° |
| 2026-04-26 17:31 | 28.36830 | -81.28302 | 2041 ft | 226 kts | 148° |
| 2026-04-26 17:31 | 28.35447 | -81.27254 | 2500 ft | 251 kts | 150° |
| 2026-04-26 17:31 | 28.34001 | -81.26003 | 3098 ft | 272 kts | 133° |
| 2026-04-26 17:32 | 28.33129 | -81.24058 | 3987 ft | 283 kts | 108° |
| 2026-04-26 17:32 | 28.32739 | -81.21853 | 4961 ft | 288 kts | 99° |
| 2026-04-26 17:32 | 28.32376 | -81.19606 | 5893 ft | 291 kts | 102° |
| 2026-04-26 17:32 | 28.31919 | -81.17358 | 6826 ft | 294 kts | 104° |
| 2026-04-26 17:33 | 28.31417 | -81.15096 | 7740 ft | 297 kts | 104° |
| 2026-04-26 17:33 | 28.30899 | -81.12808 | 8594 ft | 302 kts | 104° |
| 2026-04-26 17:33 | 28.30382 | -81.10485 | 9477 ft | 307 kts | 104° |
| 2026-04-26 17:34 | 28.29328 | -81.05626 | 10575 ft | 337 kts | 103° |
| 2026-04-26 17:34 | 28.28764 | -81.02973 | 11033 ft | 352 kts | 103° |
| 2026-04-26 17:34 | 28.28188 | -81.00245 | 11729 ft | 359 kts | 103° |
| 2026-04-26 17:34 | 28.27602 | -80.97473 | 12456 ft | 364 kts | 103° |
| 2026-04-26 17:35 | 28.27007 | -80.94654 | 13180 ft | 370 kts | 103° |
| 2026-04-26 17:35 | 28.26401 | -80.91796 | 13774 ft | 376 kts | 103° |
| 2026-04-26 17:35 | 28.25784 | -80.88907 | 14008 ft | 378 kts | 103° |
| 2026-04-26 17:35 | 28.25171 | -80.86038 | 14662 ft | 380 kts | 103° |
| 2026-04-26 17:36 | 28.24548 | -80.83115 | 15350 ft | 383 kts | 103° |
| 2026-04-26 17:36 | 28.23919 | -80.80167 | 16008 ft | 386 kts | 103° |
| 2026-04-26 17:36 | 28.23287 | -80.77196 | 16664 ft | 390 kts | 103° |
| 2026-04-26 17:36 | 28.22617 | -80.74205 | 17308 ft | 394 kts | 107° |
| 2026-04-26 17:37 | 28.21495 | -80.71354 | 17925 ft | 398 kts | 121° |
| 2026-04-26 17:37 | 28.19807 | -80.68857 | 18506 ft | 402 kts | 135° |
| 2026-04-26 17:37 | 28.17641 | -80.66858 | 19056 ft | 404 kts | 149° |
| 2026-04-26 17:38 | 28.12404 | -80.64612 | 20197 ft | 406 kts | 167° |
| 2026-04-26 17:38 | 28.09664 | -80.63792 | 20731 ft | 409 kts | 167° |
| 2026-04-26 17:38 | 28.06906 | -80.62973 | 20913 ft | 410 kts | 167° |
| 2026-04-26 17:38 | 28.04189 | -80.62166 | 20941 ft | 409 kts | 167° |
| 2026-04-26 17:39 | 28.01432 | -80.61347 | 20957 ft | 409 kts | 167° |
| 2026-04-26 17:39 | 27.98680 | -80.60529 | 20964 ft | 409 kts | 167° |
| 2026-04-26 17:39 | 27.95928 | -80.59708 | 20964 ft | 409 kts | 167° |
| 2026-04-26 17:39 | 27.93173 | -80.58882 | 20965 ft | 409 kts | 167° |
| 2026-04-26 17:40 | 27.90421 | -80.58056 | 20964 ft | 409 kts | 167° |
| 2026-04-26 17:40 | 27.88597 | -80.57509 | 20964 ft | 409 kts | 167° |
| 2026-04-26 17:40 | 27.84922 | -80.56408 | 20967 ft | 409 kts | 167° |
| 2026-04-26 17:40 | 27.82173 | -80.55586 | 20968 ft | 409 kts | 167° |
| 2026-04-26 17:41 | 27.79424 | -80.54764 | 20970 ft | 409 kts | 167° |
| 2026-04-26 17:41 | 27.76674 | -80.53944 | 20969 ft | 409 kts | 167° |
| 2026-04-26 17:41 | 27.73920 | -80.53122 | 20967 ft | 410 kts | 167° |
| 2026-04-26 17:41 | 27.71196 | -80.52310 | 20970 ft | 410 kts | 167° |
| 2026-04-26 17:42 | 27.68437 | -80.51489 | 20971 ft | 410 kts | 167° |
| 2026-04-26 17:42 | 27.65677 | -80.50661 | 20971 ft | 410 kts | 166° |
| 2026-04-26 17:42 | 27.62940 | -80.49726 | 20971 ft | 411 kts | 163° |
| 2026-04-26 17:42 | 27.60232 | -80.48677 | 20971 ft | 411 kts | 162° |
| 2026-04-26 17:43 | 27.57542 | -80.47567 | 20971 ft | 412 kts | 161° |
| 2026-04-26 17:43 | 27.54859 | -80.46440 | 20971 ft | 412 kts | 161° |
| 2026-04-26 17:43 | 27.52160 | -80.45317 | 20970 ft | 412 kts | 161° |
| 2026-04-26 17:43 | 27.49467 | -80.44218 | 20971 ft | 411 kts | 162° |
| 2026-04-26 17:44 | 27.46769 | -80.43137 | 20971 ft | 411 kts | 162° |
| 2026-04-26 17:44 | 27.44070 | -80.42068 | 20971 ft | 411 kts | 162° |
| 2026-04-26 17:44 | 27.41371 | -80.41007 | 20965 ft | 411 kts | 162° |
| 2026-04-26 17:44 | 27.38662 | -80.39946 | 20965 ft | 411 kts | 162° |
| 2026-04-26 17:45 | 27.35956 | -80.38887 | 20962 ft | 411 kts | 162° |
| 2026-04-26 17:45 | 27.33257 | -80.37829 | 20964 ft | 411 kts | 162° |
| 2026-04-26 17:45 | 27.30556 | -80.36767 | 20963 ft | 411 kts | 162° |
| 2026-04-26 17:45 | 27.27857 | -80.35703 | 20963 ft | 411 kts | 162° |
| 2026-04-26 17:46 | 27.25192 | -80.34650 | 20963 ft | 411 kts | 162° |
| 2026-04-26 17:46 | 27.22492 | -80.33579 | 20962 ft | 411 kts | 162° |
| 2026-04-26 17:46 | 27.19793 | -80.32511 | 20962 ft | 411 kts | 162° |
| 2026-04-26 17:46 | 27.17089 | -80.31453 | 20961 ft | 411 kts | 162° |
| 2026-04-26 17:47 | 27.14384 | -80.30406 | 20962 ft | 411 kts | 162° |
| 2026-04-26 17:47 | 27.12591 | -80.29714 | 20953 ft | 411 kts | 163° |
| 2026-04-26 17:47 | 27.08966 | -80.28315 | 20962 ft | 411 kts | 163° |
| 2026-04-26 17:47 | 27.06260 | -80.27270 | 20963 ft | 411 kts | 163° |
| 2026-04-26 17:48 | 27.03550 | -80.26220 | 20965 ft | 412 kts | 162° |
| 2026-04-26 17:48 | 27.00844 | -80.25167 | 20967 ft | 411 kts | 162° |
| 2026-04-26 17:48 | 26.98141 | -80.24118 | 20968 ft | 411 kts | 162° |
| 2026-04-26 17:48 | 26.95432 | -80.23069 | 20970 ft | 411 kts | 163° |
| 2026-04-26 17:49 | 26.92727 | -80.22023 | 20971 ft | 411 kts | 163° |
| 2026-04-26 17:49 | 26.90022 | -80.20976 | 20975 ft | 412 kts | 163° |
| 2026-04-26 17:49 | 26.87317 | -80.19930 | 20973 ft | 411 kts | 163° |
| 2026-04-26 17:49 | 26.84687 | -80.18920 | 20976 ft | 411 kts | 163° |
| 2026-04-26 17:50 | 26.81974 | -80.17899 | 20969 ft | 411 kts | 163° |
| 2026-04-26 17:50 | 26.79268 | -80.16896 | 20650 ft | 406 kts | 163° |
| 2026-04-26 17:50 | 26.76604 | -80.15914 | 19823 ft | 401 kts | 163° |
| 2026-04-26 17:50 | 26.73969 | -80.14948 | 19131 ft | 397 kts | 163° |
| 2026-04-26 17:51 | 26.71347 | -80.13990 | 18650 ft | 394 kts | 164° |
| 2026-04-26 17:51 | 26.68746 | -80.13143 | 18522 ft | 381 kts | 167° |
| 2026-04-26 17:51 | 26.66202 | -80.12424 | 18202 ft | 373 kts | 168° |
| 2026-04-26 17:51 | 26.63696 | -80.11775 | 17470 ft | 368 kts | 169° |
| 2026-04-26 17:52 | 26.61213 | -80.11154 | 16822 ft | 361 kts | 169° |
| 2026-04-26 17:52 | 26.58798 | -80.10548 | 16410 ft | 353 kts | 169° |
| 2026-04-26 17:52 | 26.56396 | -80.09960 | 15989 ft | 353 kts | 170° |
| 2026-04-26 17:52 | 26.53997 | -80.09376 | 15572 ft | 352 kts | 170° |
| 2026-04-26 17:53 | 26.51605 | -80.08790 | 15145 ft | 352 kts | 170° |
| 2026-04-26 17:53 | 26.49217 | -80.08200 | 14740 ft | 351 kts | 170° |
| 2026-04-26 17:53 | 26.46835 | -80.07609 | 14332 ft | 351 kts | 170° |
| 2026-04-26 17:54 | 26.42058 | -80.06508 | 13447 ft | 350 kts | 172° |
| 2026-04-26 17:54 | 26.39671 | -80.06011 | 13019 ft | 348 kts | 172° |
| 2026-04-26 17:54 | 26.37313 | -80.05479 | 12693 ft | 343 kts | 171° |
| 2026-04-26 17:54 | 26.34990 | -80.04967 | 12414 ft | 338 kts | 171° |
| 2026-04-26 17:55 | 26.32695 | -80.04466 | 12142 ft | 335 kts | 171° |
| 2026-04-26 17:55 | 26.30457 | -80.03881 | 11879 ft | 334 kts | 167° |
| 2026-04-26 17:55 | 26.28222 | -80.03193 | 11630 ft | 332 kts | 167° |
| 2026-04-26 17:55 | 26.25970 | -80.02700 | 11378 ft | 328 kts | 176° |
| 2026-04-26 17:56 | 26.23707 | -80.02658 | 11140 ft | 323 kts | 188° |
| 2026-04-26 17:56 | 26.19311 | -80.03564 | 11014 ft | 322 kts | 195° |
| 2026-04-26 17:57 | 26.14907 | -80.04582 | 10999 ft | 323 kts | 195° |
| 2026-04-26 17:57 | 26.12704 | -80.05089 | 10992 ft | 323 kts | 195° |
| 2026-04-26 17:57 | 26.10504 | -80.05595 | 10990 ft | 323 kts | 195° |
| 2026-04-26 17:57 | 26.08301 | -80.06099 | 10990 ft | 323 kts | 194° |
| 2026-04-26 17:58 | 26.01717 | -80.07711 | 10990 ft | 322 kts | 196° |
| 2026-04-26 17:59 | 25.97384 | -80.08860 | 10992 ft | 322 kts | 197° |
| 2026-04-26 17:59 | 25.95202 | -80.09437 | 10992 ft | 322 kts | 196° |
| 2026-04-26 17:59 | 25.93025 | -80.10025 | 10991 ft | 321 kts | 200° |
| 2026-04-26 17:59 | 25.90971 | -80.10953 | 10990 ft | 318 kts | 211° |
| 2026-04-26 18:00 | 25.89008 | -80.12100 | 10996 ft | 319 kts | 211° |
| 2026-04-26 18:00 | 25.87039 | -80.13240 | 10998 ft | 319 kts | 211° |
| 2026-04-26 18:00 | 25.85066 | -80.14378 | 11001 ft | 319 kts | 211° |
| 2026-04-26 18:00 | 25.83094 | -80.15516 | 10649 ft | 319 kts | 211° |
| 2026-04-26 18:01 | 25.81127 | -80.16654 | 10227 ft | 318 kts | 211° |
| 2026-04-26 18:01 | 25.79189 | -80.17772 | 10039 ft | 308 kts | 211° |
| 2026-04-26 18:01 | 25.77308 | -80.18853 | 9816 ft | 301 kts | 211° |
| 2026-04-26 18:01 | 25.75464 | -80.19918 | 9458 ft | 298 kts | 212° |
| 2026-04-26 18:02 | 25.73814 | -80.21254 | 9065 ft | 291 kts | 228° |
| 2026-04-26 18:02 | 25.73345 | -80.21805 | 8935 ft | 289 kts | 233° |
| 2026-04-26 18:02 | 25.71805 | -80.25000 | 8278 ft | 281 kts | 257° |
| 2026-04-26 18:02 | 25.71375 | -80.27103 | 7895 ft | 279 kts | 261° |
| 2026-04-26 18:03 | 25.71188 | -80.29230 | 7519 ft | 276 kts | 269° |
| 2026-04-26 18:03 | 25.71095 | -80.31346 | 7154 ft | 274 kts | 268° |
| 2026-04-26 18:03 | 25.70996 | -80.33444 | 6792 ft | 271 kts | 268° |
| 2026-04-26 18:03 | 25.70893 | -80.35524 | 6427 ft | 270 kts | 267° |
| 2026-04-26 18:04 | 25.70791 | -80.37593 | 6049 ft | 268 kts | 267° |
| 2026-04-26 18:04 | 25.70691 | -80.39650 | 5690 ft | 267 kts | 266° |
| 2026-04-26 18:04 | 25.70591 | -80.41707 | 5336 ft | 267 kts | 266° |
| 2026-04-26 18:05 | 25.70991 | -80.45668 | 4840 ft | 263 kts | 298° |
| 2026-04-26 18:05 | 25.71959 | -80.47411 | 4725 ft | 266 kts | 301° |
| 2026-04-26 18:05 | 25.72964 | -80.49134 | 4582 ft | 266 kts | 303° |
| 2026-04-26 18:05 | 25.74266 | -80.50570 | 4426 ft | 264 kts | 328° |
| 2026-04-26 18:06 | 25.75967 | -80.51133 | 4134 ft | 261 kts | 357° |
| 2026-04-26 18:06 | 25.77691 | -80.50576 | 3459 ft | 263 kts | 36° |
| 2026-04-26 18:06 | 25.78743 | -80.48992 | 3059 ft | 256 kts | 75° |
| 2026-04-26 18:06 | 25.78714 | -80.47089 | 2735 ft | 245 kts | 114° |
| 2026-04-26 18:07 | 25.77993 | -80.45400 | 2444 ft | 241 kts | 114° |
| 2026-04-26 18:07 | 25.77865 | -80.43575 | 2154 ft | 241 kts | 82° |
| 2026-04-26 18:07 | 25.78154 | -80.41762 | 1857 ft | 232 kts | 86° |
| 2026-04-26 18:07 | 25.78202 | -80.41165 | 1757 ft | 227 kts | 89° |
| 2026-04-26 18:08 | 25.78322 | -80.38421 | 1303 ft | 202 kts | 90° |
| 2026-04-26 18:08 | 25.78383 | -80.36926 | 1064 ft | 185 kts | 89° |
| 2026-04-26 18:08 | 25.78440 | -80.35566 | 843 ft | 165 kts | 90° |
| 2026-04-26 18:08 | 25.78490 | -80.34363 | 630 ft | 148 kts | 93° |
| 2026-04-26 18:09 | 25.78529 | -80.33223 | 431 ft | 146 kts | 91° |
| 2026-04-26 18:09 | 25.78557 | -80.32499 | 284 ft | 138 kts | 89° |
| 2026-04-26 18:09 | 25.78612 | -80.31438 | 116 ft | 139 kts | 91° |
| 2026-04-26 18:09 | 25.78661 | -80.30395 | 24 ft | 127 kts | 90° |
| 2026-04-26 18:10 | 25.78692 | -80.29553 | 16 ft | 76 kts | 88° |
| 2026-04-26 18:10 | 25.78707 | -80.28985 | 17 ft | 47 kts | 86° |
| 2026-04-26 18:10 | 25.78746 | -80.28794 | 19 ft | 33 kts | 69° |
| 2026-04-26 18:10 | 25.78836 | -80.28664 | 16 ft | 9 kts | 41° |
| 2026-04-26 18:11 | 25.78846 | -80.28654 | 16 ft | 3 kts | 41° |
| 2026-04-26 18:11 | 25.78904 | -80.28602 | 16 ft | 12 kts | 36° |
| 2026-04-26 18:11 | 25.78947 | -80.28568 | 17 ft | 0 kts | 36° |
| 2026-04-26 18:12 | 25.78952 | -80.28564 | 17 ft | 4 kts | 36° |
| 2026-04-26 18:13 | 25.78962 | -80.28556 | 17 ft | 0 kts | 35° |
| 2026-04-26 18:14 | 25.79010 | -80.28518 | 18 ft | 14 kts | 34° |
| 2026-04-26 18:14 | 25.79091 | -80.28461 | 17 ft | 13 kts | 33° |
| 2026-04-26 18:14 | 25.79161 | -80.28414 | 18 ft | 11 kts | 25° |
| 2026-04-26 18:14 | 25.79222 | -80.28423 | 19 ft | 9 kts | 320° |
| 2026-04-26 18:15 | 25.79260 | -80.28482 | 19 ft | 14 kts | 300° |
| 2026-04-26 18:15 | 25.79335 | -80.28559 | 18 ft | 15 kts | 345° |
| 2026-04-26 18:15 | 25.79432 | -80.28569 | 18 ft | 13 kts | 355° |
| 2026-04-26 18:15 | 25.79509 | -80.28534 | 19 ft | 11 kts | 51° |
| 2026-04-26 18:16 | 25.79520 | -80.28483 | 19 ft | 0 kts | 84° |